sensor_id;sensor_type;location;lat;lon;timestamp;pressure;altitude;pressure_sealevel;temperature;humidity
18500;BME280;9379;52.134;11.576;2024-03-02T00:00:56;99893.53;;;10.35;98.19
18500;BME280;9379;52.134;11.576;2024-03-02T00:03:23;99888.22;;;10.35;98.90
18500;BME280;9379;52.134;11.576;2024-03-02T00:05:51;99892.56;;;10.36;98.95
18500;BME280;9379;52.134;11.576;2024-03-02T00:08:23;99890.00;;;10.16;99.46
18500;BME280;9379;52.134;11.576;2024-03-02T00:10:52;99887.84;;;10.02;100.00
18500;BME280;9379;52.134;11.576;2024-03-02T00:13:23;99890.03;;;10.07;99.85
18500;BME280;9379;52.134;11.576;2024-03-02T00:15:52;99894.63;;;9.97;100.00
18500;BME280;9379;52.134;11.576;2024-03-02T00:18:21;99888.25;;;9.80;100.00
18500;BME280;9379;52.134;11.576;2024-03-02T00:20:48;99889.09;;;9.80;100.00
18500;BME280;9379;52.134;11.576;2024-03-02T00:23:16;99880.44;;;9.78;100.00
18500;BME280;9379;52.134;11.576;2024-03-02T00:25:47;99884.25;;;9.93;100.00
18500;BME280;9379;52.134;11.576;2024-03-02T00:28:17;99880.66;;;10.12;100.00
18500;BME280;9379;52.134;11.576;2024-03-02T00:30:58;99875.56;;;10.01;100.00
18500;BME280;9379;52.134;11.576;2024-03-02T00:33:30;99871.41;;;9.99;100.00
18500;BME280;9379;52.134;11.576;2024-03-02T00:35:58;99863.94;;;10.30;99.78
18500;BME280;9379;52.134;11.576;2024-03-02T00:38:28;99867.91;;;10.43;98.35
18500;BME280;9379;52.134;11.576;2024-03-02T00:40:56;99862.19;;;10.56;96.86
18500;BME280;9379;52.134;11.576;2024-03-02T00:43:45;99865.53;;;10.58;96.60
18500;BME280;9379;52.134;11.576;2024-03-02T00:46:16;99871.19;;;10.63;96.53
18500;BME280;9379;52.134;11.576;2024-03-02T00:49:03;99857.16;;;10.71;95.74
18500;BME280;9379;52.134;11.576;2024-03-02T00:51:31;99863.63;;;10.50;96.12
18500;BME280;9379;52.134;11.576;2024-03-02T00:54:02;99860.09;;;10.86;95.29
18500;BME280;9379;52.134;11.576;2024-03-02T00:56:30;99860.19;;;10.76;95.19
18500;BME280;9379;52.134;11.576;2024-03-02T00:58:57;99862.63;;;10.51;96.24
18500;BME280;9379;52.134;11.576;2024-03-02T01:01:24;99869.25;;;10.47;96.27
18500;BME280;9379;52.134;11.576;2024-03-02T01:03:51;99863.00;;;10.21;97.67
18500;BME280;9379;52.134;11.576;2024-03-02T01:06:19;99864.94;;;10.46;97.76
18500;BME280;9379;52.134;11.576;2024-03-02T01:08:45;99861.53;;;10.54;96.95
18500;BME280;9379;52.134;11.576;2024-03-02T01:11:18;99863.25;;;10.28;97.68
18500;BME280;9379;52.134;11.576;2024-03-02T01:13:47;99864.09;;;10.28;98.60
18500;BME280;9379;52.134;11.576;2024-03-02T01:16:14;99871.47;;;10.34;98.15
18500;BME280;9379;52.134;11.576;2024-03-02T01:18:42;99864.94;;;10.46;97.43
18500;BME280;9379;52.134;11.576;2024-03-02T01:21:09;99868.50;;;10.37;98.40
18500;BME280;9379;52.134;11.576;2024-03-02T01:23:36;99861.03;;;10.41;97.80
18500;BME280;9379;52.134;11.576;2024-03-02T01:26:03;99855.69;;;10.33;98.26
18500;BME280;9379;52.134;11.576;2024-03-02T01:28:31;99861.06;;;10.59;96.75
18500;BME280;9379;52.134;11.576;2024-03-02T01:30:58;99855.81;;;10.49;96.89
18500;BME280;9379;52.134;11.576;2024-03-02T01:33:25;99858.56;;;10.57;96.29
18500;BME280;9379;52.134;11.576;2024-03-02T01:35:52;99852.91;;;10.60;96.12
18500;BME280;9379;52.134;11.576;2024-03-02T01:38:19;99854.22;;;10.56;96.74
18500;BME280;9379;52.134;11.576;2024-03-02T01:40:46;99856.88;;;10.38;97.21
18500;BME280;9379;52.134;11.576;2024-03-02T01:43:13;99858.03;;;10.36;98.30
18500;BME280;9379;52.134;11.576;2024-03-02T01:45:47;99852.25;;;10.40;97.71
18500;BME280;9379;52.134;11.576;2024-03-02T01:48:13;99852.84;;;10.52;97.38
18500;BME280;9379;52.134;11.576;2024-03-02T01:50:41;99849.16;;;10.45;96.93
18500;BME280;9379;52.134;11.576;2024-03-02T01:53:08;99849.91;;;10.55;96.88
18500;BME280;9379;52.134;11.576;2024-03-02T01:55:35;99855.78;;;10.13;98.47
18500;BME280;9379;52.134;11.576;2024-03-02T01:58:03;99851.19;;;10.33;98.35
18500;BME280;9379;52.134;11.576;2024-03-02T02:00:30;99847.69;;;10.50;96.96
18500;BME280;9379;52.134;11.576;2024-03-02T02:02:59;99848.75;;;10.40;97.65
18500;BME280;9379;52.134;11.576;2024-03-02T02:05:26;99846.41;;;10.37;98.30
18500;BME280;9379;52.134;11.576;2024-03-02T02:07:53;99845.78;;;10.07;98.62
18500;BME280;9379;52.134;11.576;2024-03-02T02:10:20;99849.53;;;9.87;100.00
18500;BME280;9379;52.134;11.576;2024-03-02T02:12:47;99845.44;;;9.75;100.00
18500;BME280;9379;52.134;11.576;2024-03-02T02:15:24;99839.75;;;9.60;100.00
18500;BME280;9379;52.134;11.576;2024-03-02T02:17:51;99847.63;;;9.79;100.00
18500;BME280;9379;52.134;11.576;2024-03-02T02:20:19;99843.34;;;9.96;100.00
18500;BME280;9379;52.134;11.576;2024-03-02T02:22:57;99836.88;;;10.16;99.79
18500;BME280;9379;52.134;11.576;2024-03-02T02:25:25;99834.13;;;10.36;97.98
18500;BME280;9379;52.134;11.576;2024-03-02T02:27:52;99836.69;;;10.28;98.07
18500;BME280;9379;52.134;11.576;2024-03-02T02:30:20;99836.25;;;10.32;98.40
18500;BME280;9379;52.134;11.576;2024-03-02T02:32:50;99834.72;;;10.47;97.50
18500;BME280;9379;52.134;11.576;2024-03-02T02:35:17;99826.50;;;10.41;98.25
18500;BME280;9379;52.134;11.576;2024-03-02T02:46:56;99841.94;;;10.55;96.96
18500;BME280;9379;52.134;11.576;2024-03-02T02:49:23;99847.47;;;10.44;98.05
18500;BME280;9379;52.134;11.576;2024-03-02T02:51:50;99846.41;;;10.37;98.21
18500;BME280;9379;52.134;11.576;2024-03-02T02:54:16;99838.59;;;10.35;98.70
18500;BME280;9379;52.134;11.576;2024-03-02T02:56:43;99842.00;;;10.28;98.66
18500;BME280;9379;52.134;11.576;2024-03-02T02:59:10;99844.88;;;10.70;96.93
18500;BME280;9379;52.134;11.576;2024-03-02T03:01:37;99839.34;;;10.28;98.23
18500;BME280;9379;52.134;11.576;2024-03-02T03:04:05;99834.19;;;10.44;97.90
18500;BME280;9379;52.134;11.576;2024-03-02T03:06:32;99835.06;;;10.70;96.70
18500;BME280;9379;52.134;11.576;2024-03-02T03:08:58;99834.44;;;10.76;95.84
18500;BME280;9379;52.134;11.576;2024-03-02T03:11:25;99827.91;;;10.45;97.17
18500;BME280;9379;52.134;11.576;2024-03-02T03:13:52;99840.59;;;10.06;98.76
18500;BME280;9379;52.134;11.576;2024-03-02T03:16:20;99834.69;;;10.12;99.80
18500;BME280;9379;52.134;11.576;2024-03-02T03:18:46;99842.63;;;10.21;98.92
18500;BME280;9379;52.134;11.576;2024-03-02T03:21:17;99840.38;;;10.17;98.98
18500;BME280;9379;52.134;11.576;2024-03-02T03:23:44;99840.16;;;10.10;99.21
18500;BME280;9379;52.134;11.576;2024-03-02T03:26:10;99832.31;;;9.91;100.00
18500;BME280;9379;52.134;11.576;2024-03-02T03:28:37;99847.81;;;9.96;100.00
18500;BME280;9379;52.134;11.576;2024-03-02T03:31:04;99844.09;;;9.88;100.00
18500;BME280;9379;52.134;11.576;2024-03-02T03:33:31;99843.63;;;9.93;100.00
18500;BME280;9379;52.134;11.576;2024-03-02T03:35:58;99844.91;;;9.89;100.00
18500;BME280;9379;52.134;11.576;2024-03-02T03:38:26;99842.84;;;10.46;98.54
18500;BME280;9379;52.134;11.576;2024-03-02T03:40:53;99845.63;;;10.88;96.01
18500;BME280;9379;52.134;11.576;2024-03-02T03:43:20;99851.13;;;10.25;97.87
18500;BME280;9379;52.134;11.576;2024-03-02T03:45:47;99850.81;;;10.28;98.73
18500;BME280;9379;52.134;11.576;2024-03-02T03:48:14;99849.91;;;10.55;96.89
18500;BME280;9379;52.134;11.576;2024-03-02T03:50:41;99850.84;;;10.72;96.16
18500;BME280;9379;52.134;11.576;2024-03-02T03:53:07;99858.75;;;10.64;96.83
18500;BME280;9379;52.134;11.576;2024-03-02T03:55:36;99861.13;;;10.67;96.22
18500;BME280;9379;52.134;11.576;2024-03-02T03:58:03;99851.09;;;10.61;96.22
18500;BME280;9379;52.134;11.576;2024-03-02T04:00:30;99852.72;;;10.54;96.98
18500;BME280;9379;52.134;11.576;2024-03-02T04:02:57;99853.47;;;10.46;97.76
18500;BME280;9379;52.134;11.576;2024-03-02T04:05:24;99854.69;;;10.34;97.75
18500;BME280;9379;52.134;11.576;2024-03-02T04:07:51;99847.34;;;10.00;98.77
18500;BME280;9379;52.134;11.576;2024-03-02T04:10:17;99851.69;;;10.01;99.38
18500;BME280;9379;52.134;11.576;2024-03-02T04:12:49;99850.72;;;10.20;99.23
18500;BME280;9379;52.134;11.576;2024-03-02T04:15:15;99847.00;;;10.13;98.92
18500;BME280;9379;52.134;11.576;2024-03-02T04:17:44;99849.13;;;10.27;98.01
18500;BME280;9379;52.134;11.576;2024-03-02T04:20:11;99849.19;;;10.17;98.43
18500;BME280;9379;52.134;11.576;2024-03-02T04:22:39;99847.91;;;10.57;95.97
18500;BME280;9379;52.134;11.576;2024-03-02T04:25:06;99857.66;;;10.92;94.26
18500;BME280;9379;52.134;11.576;2024-03-02T04:27:33;99863.56;;;11.04;93.18
18500;BME280;9379;52.134;11.576;2024-03-02T04:30:01;99863.13;;;11.17;92.30
18500;BME280;9379;52.134;11.576;2024-03-02T04:32:29;99861.41;;;10.64;94.58
18500;BME280;9379;52.134;11.576;2024-03-02T04:34:56;99867.38;;;10.84;93.90
18500;BME280;9379;52.134;11.576;2024-03-02T04:37:23;99868.28;;;10.31;95.32
18500;BME280;9379;52.134;11.576;2024-03-02T04:39:50;99866.63;;;10.02;97.59
18500;BME280;9379;52.134;11.576;2024-03-02T04:42:17;99877.13;;;9.94;98.61
18500;BME280;9379;52.134;11.576;2024-03-02T04:44:44;99878.47;;;10.08;98.35
18500;BME280;9379;52.134;11.576;2024-03-02T04:47:12;99869.19;;;10.57;95.70
18500;BME280;9379;52.134;11.576;2024-03-02T04:49:39;99868.72;;;10.26;95.68
18500;BME280;9379;52.134;11.576;2024-03-02T04:52:06;99882.94;;;10.07;96.75
18500;BME280;9379;52.134;11.576;2024-03-02T04:54:33;99875.56;;;10.01;98.08
18500;BME280;9379;52.134;11.576;2024-03-02T04:57:21;99879.00;;;10.11;98.50
18500;BME280;9379;52.134;11.576;2024-03-02T04:59:47;99886.19;;;10.46;95.85
18500;BME280;9379;52.134;11.576;2024-03-02T05:02:15;99870.94;;;10.03;97.62
18500;BME280;9379;52.134;11.576;2024-03-02T05:04:42;99887.97;;;9.83;98.94
18500;BME280;9379;52.134;11.576;2024-03-02T05:07:09;99885.09;;;9.94;99.08
18500;BME280;9379;52.134;11.576;2024-03-02T05:09:36;99884.13;;;10.22;97.31
18500;BME280;9379;52.134;11.576;2024-03-02T05:12:03;99890.81;;;10.17;97.77
18500;BME280;9379;52.134;11.576;2024-03-02T05:14:48;99891.94;;;9.97;98.00
18500;BME280;9379;52.134;11.576;2024-03-02T05:17:16;99899.66;;;9.90;99.20
18500;BME280;9379;52.134;11.576;2024-03-02T05:19:43;99892.38;;;9.92;99.05
18500;BME280;9379;52.134;11.576;2024-03-02T05:22:10;99902.63;;;9.87;99.31
18500;BME280;9379;52.134;11.576;2024-03-02T05:24:37;99893.41;;;9.81;99.75
18500;BME280;9379;52.134;11.576;2024-03-02T05:27:04;99899.56;;;9.82;99.96
18500;BME280;9379;52.134;11.576;2024-03-02T05:29:32;99896.28;;;9.98;99.90
18500;BME280;9379;52.134;11.576;2024-03-02T05:31:59;99891.41;;;9.93;99.50
18500;BME280;9379;52.134;11.576;2024-03-02T05:34:27;99891.16;;;9.86;100.00
18500;BME280;9379;52.134;11.576;2024-03-02T05:36:54;99896.06;;;10.09;99.44
18500;BME280;9379;52.134;11.576;2024-03-02T05:39:23;99893.25;;;10.10;99.50
18500;BME280;9379;52.134;11.576;2024-03-02T05:41:50;99892.03;;;10.05;99.20
18500;BME280;9379;52.134;11.576;2024-03-02T05:44:16;99896.03;;;9.91;100.00
18500;BME280;9379;52.134;11.576;2024-03-02T05:46:47;99898.00;;;9.89;100.00
18500;BME280;9379;52.134;11.576;2024-03-02T05:49:14;99893.41;;;9.81;100.00
18500;BME280;9379;52.134;11.576;2024-03-02T05:51:42;99904.50;;;9.94;100.00
18500;BME280;9379;52.134;11.576;2024-03-02T05:54:09;99905.34;;;9.95;100.00
18500;BME280;9379;52.134;11.576;2024-03-02T05:56:36;99899.56;;;10.09;100.00
18500;BME280;9379;52.134;11.576;2024-03-02T05:59:03;99911.22;;;9.99;100.00
18500;BME280;9379;52.134;11.576;2024-03-02T06:01:38;99906.91;;;9.98;100.00
18500;BME280;9379;52.134;11.576;2024-03-02T06:04:05;99908.31;;;9.92;100.00
18500;BME280;9379;52.134;11.576;2024-03-02T06:06:31;99909.97;;;9.93;100.00
18500;BME280;9379;52.134;11.576;2024-03-02T06:09:00;99910.16;;;9.82;100.00
18500;BME280;9379;52.134;11.576;2024-03-02T06:11:30;99913.56;;;9.74;100.00
18500;BME280;9379;52.134;11.576;2024-03-02T06:13:57;99911.66;;;9.94;100.00
18500;BME280;9379;52.134;11.576;2024-03-02T06:16:24;99911.53;;;9.96;100.00
18500;BME280;9379;52.134;11.576;2024-03-02T06:18:51;99911.66;;;9.94;100.00
18500;BME280;9379;52.134;11.576;2024-03-02T06:21:19;99910.38;;;9.98;100.00
18500;BME280;9379;52.134;11.576;2024-03-02T06:23:46;99914.19;;;9.96;100.00
18500;BME280;9379;52.134;11.576;2024-03-02T06:26:14;99920.00;;;9.99;100.00
18500;BME280;9379;52.134;11.576;2024-03-02T06:28:41;99918.19;;;10.00;100.00
18500;BME280;9379;52.134;11.576;2024-03-02T06:31:08;99919.47;;;9.96;100.00
18500;BME280;9379;52.134;11.576;2024-03-02T06:33:35;99917.25;;;9.91;100.00
18500;BME280;9379;52.134;11.576;2024-03-02T06:36:02;99915.00;;;9.96;100.00
18500;BME280;9379;52.134;11.576;2024-03-02T06:38:29;99923.03;;;10.04;100.00
18500;BME280;9379;52.134;11.576;2024-03-02T06:40:57;99927.22;;;10.07;100.00
18500;BME280;9379;52.134;11.576;2024-03-02T06:43:26;99929.28;;;10.22;100.00
18500;BME280;9379;52.134;11.576;2024-03-02T06:45:53;99932.94;;;10.12;100.00
18500;BME280;9379;52.134;11.576;2024-03-02T06:48:19;99922.28;;;10.21;100.00
18500;BME280;9379;52.134;11.576;2024-03-02T06:50:46;99928.84;;;10.17;100.00
18500;BME280;9379;52.134;11.576;2024-03-02T06:53:14;99929.28;;;10.22;100.00
18500;BME280;9379;52.134;11.576;2024-03-02T06:55:43;99939.75;;;10.14;100.00
18500;BME280;9379;52.134;11.576;2024-03-02T06:58:10;99937.94;;;10.15;100.00
18500;BME280;9379;52.134;11.576;2024-03-02T07:00:38;99935.72;;;10.38;100.00
18500;BME280;9379;52.134;11.576;2024-03-02T07:03:05;99933.94;;;10.56;100.00
18500;BME280;9379;52.134;11.576;2024-03-02T07:05:31;99935.59;;;10.57;99.50
18500;BME280;9379;52.134;11.576;2024-03-02T07:07:58;99942.50;;;10.32;100.00
18500;BME280;9379;52.134;11.576;2024-03-02T07:10:26;99939.44;;;10.17;100.00
18500;BME280;9379;52.134;11.576;2024-03-02T07:12:53;99934.22;;;10.53;100.00
18500;BME280;9379;52.134;11.576;2024-03-02T07:15:20;99938.00;;;10.50;99.80
18500;BME280;9379;52.134;11.576;2024-03-02T07:18:11;99939.44;;;10.27;100.00
18500;BME280;9379;52.134;11.576;2024-03-02T07:20:38;99946.88;;;10.41;100.00
18500;BME280;9379;52.134;11.576;2024-03-02T07:23:05;99940.38;;;10.36;100.00
18500;BME280;9379;52.134;11.576;2024-03-02T07:25:32;99942.88;;;10.55;100.00
18500;BME280;9379;52.134;11.576;2024-03-02T07:27:59;99945.09;;;10.77;100.00
18500;BME280;9379;52.134;11.576;2024-03-02T07:30:26;99941.44;;;10.61;100.00
18500;BME280;9379;52.134;11.576;2024-03-02T07:32:53;99951.38;;;10.76;100.00
18500;BME280;9379;52.134;11.576;2024-03-02T07:35:21;99941.88;;;10.92;100.00
18500;BME280;9379;52.134;11.576;2024-03-02T07:37:52;99942.88;;;10.55;100.00
18500;BME280;9379;52.134;11.576;2024-03-02T07:40:19;99941.66;;;10.32;100.00
18500;BME280;9379;52.134;11.576;2024-03-02T07:42:46;99950.28;;;9.79;100.00
18500;BME280;9379;52.134;11.576;2024-03-02T07:45:13;99947.56;;;10.26;100.00
18500;BME280;9379;52.134;11.576;2024-03-02T07:47:40;99942.94;;;10.63;100.00
18500;BME280;9379;52.134;11.576;2024-03-02T07:50:08;99935.50;;;10.85;100.00
18500;BME280;9379;52.134;11.576;2024-03-02T07:52:36;99940.59;;;10.60;100.00
18500;BME280;9379;52.134;11.576;2024-03-02T07:55:03;99942.19;;;10.71;100.00
18500;BME280;9379;52.134;11.576;2024-03-02T07:57:31;99956.25;;;10.81;100.00
18500;BME280;9379;52.134;11.576;2024-03-02T07:59:58;99961.94;;;10.68;100.00
18500;BME280;9379;52.134;11.576;2024-03-02T08:02:25;99965.34;;;10.96;100.00
18500;BME280;9379;52.134;11.576;2024-03-02T08:04:52;99963.09;;;11.27;100.00
18500;BME280;9379;52.134;11.576;2024-03-02T08:07:19;99974.84;;;10.63;100.00
18500;BME280;9379;52.134;11.576;2024-03-02T08:09:47;99963.84;;;10.94;100.00
18500;BME280;9379;52.134;11.576;2024-03-02T08:12:14;99969.97;;;11.12;100.00
18500;BME280;9379;52.134;11.576;2024-03-02T08:14:41;99968.78;;;11.32;100.00
18500;BME280;9379;52.134;11.576;2024-03-02T08:17:08;99969.81;;;11.14;100.00
18500;BME280;9379;52.134;11.576;2024-03-02T08:19:37;99960.53;;;11.18;100.00
18500;BME280;9379;52.134;11.576;2024-03-02T08:22:04;99973.13;;;10.90;100.00
18500;BME280;9379;52.134;11.576;2024-03-02T08:24:31;99970.41;;;10.36;100.00
18500;BME280;9379;52.134;11.576;2024-03-02T08:27:00;99968.53;;;10.82;100.00
18500;BME280;9379;52.134;11.576;2024-03-02T08:29:27;99969.28;;;10.74;100.00
18500;BME280;9379;52.134;11.576;2024-03-02T08:31:54;99965.28;;;10.70;100.00
18500;BME280;9379;52.134;11.576;2024-03-02T08:34:21;99967.16;;;10.96;100.00
18500;BME280;9379;52.134;11.576;2024-03-02T08:36:48;99961.09;;;11.03;100.00
18500;BME280;9379;52.134;11.576;2024-03-02T08:39:15;99957.97;;;11.08;100.00
18500;BME280;9379;52.134;11.576;2024-03-02T08:41:42;99957.09;;;11.25;100.00
18500;BME280;9379;52.134;11.576;2024-03-02T08:46:56;99964.53;;;10.78;100.00
18500;BME280;9379;52.134;11.576;2024-03-02T08:49:23;99958.09;;;11.24;100.00
18500;BME280;9379;52.134;11.576;2024-03-02T08:51:50;99968.84;;;11.15;100.00
18500;BME280;9379;52.134;11.576;2024-03-02T08:54:20;99966.03;;;11.42;100.00
18500;BME280;9379;52.134;11.576;2024-03-02T08:56:47;99975.91;;;11.50;100.00
18500;BME280;9379;52.134;11.576;2024-03-02T08:59:14;99972.97;;;11.35;100.00
18500;BME280;9379;52.134;11.576;2024-03-02T09:01:41;99975.97;;;11.14;100.00
18500;BME280;9379;52.134;11.576;2024-03-02T09:04:10;99984.19;;;11.47;100.00
18500;BME280;9379;52.134;11.576;2024-03-02T09:06:36;99978.63;;;11.58;100.00
18500;BME280;9379;52.134;11.576;2024-03-02T09:09:03;99982.97;;;11.41;100.00
18500;BME280;9379;52.134;11.576;2024-03-02T09:11:32;99988.97;;;11.43;100.00
18500;BME280;9379;52.134;11.576;2024-03-02T09:13:59;99988.56;;;11.30;100.00
18500;BME280;9379;52.134;11.576;2024-03-02T09:16:26;99987.88;;;11.28;100.00
18500;BME280;9379;52.134;11.576;2024-03-02T09:18:56;99990.09;;;10.97;100.00
18500;BME280;9379;52.134;11.576;2024-03-02T09:21:24;99983.97;;;11.40;100.00
18500;BME280;9379;52.134;11.576;2024-03-02T09:23:52;99989.97;;;11.68;100.00
18500;BME280;9379;52.134;11.576;2024-03-02T09:26:18;99987.63;;;11.91;100.00
18500;BME280;9379;52.134;11.576;2024-03-02T09:28:46;99988.34;;;11.75;100.00
18500;BME280;9379;52.134;11.576;2024-03-02T09:31:13;99985.56;;;12.53;99.69
18500;BME280;9379;52.134;11.576;2024-03-02T09:33:40;99994.44;;;12.86;96.75
18500;BME280;9379;52.134;11.576;2024-03-02T09:36:16;99995.91;;;12.72;98.50
18500;BME280;9379;52.134;11.576;2024-03-02T09:38:45;99995.94;;;12.89;97.30
18500;BME280;9379;52.134;11.576;2024-03-02T09:41:12;99998.06;;;12.69;98.49
18500;BME280;9379;52.134;11.576;2024-03-02T09:43:40;99999.78;;;12.94;98.25
18500;BME280;9379;52.134;11.576;2024-03-02T09:46:09;99997.13;;;13.02;97.42
18500;BME280;9379;52.134;11.576;2024-03-02T09:48:40;100003.66;;;13.24;97.91
18500;BME280;9379;52.134;11.576;2024-03-02T09:51:08;100005.91;;;12.70;97.46
18500;BME280;9379;52.134;11.576;2024-03-02T09:53:36;100011.38;;;12.52;100.00
18500;BME280;9379;52.134;11.576;2024-03-02T09:56:04;100012.44;;;12.92;98.73
18500;BME280;9379;52.134;11.576;2024-03-02T09:58:31;100000.94;;;13.08;97.95
18500;BME280;9379;52.134;11.576;2024-03-02T10:00:58;100003.16;;;13.21;95.68
18500;BME280;9379;52.134;11.576;2024-03-02T10:03:26;100004.66;;;13.39;96.01
18500;BME280;9379;52.134;11.576;2024-03-02T10:06:21;100006.81;;;13.20;96.64
18500;BME280;9379;52.134;11.576;2024-03-02T10:08:48;100011.13;;;13.12;96.75
18500;BME280;9379;52.134;11.576;2024-03-02T10:11:30;100001.31;;;13.29;95.90
18500;BME280;9379;52.134;11.576;2024-03-02T10:14:05;100002.47;;;13.51;94.81
18500;BME280;9379;52.134;11.576;2024-03-02T10:16:35;100010.50;;;13.43;94.73
18500;BME280;9379;52.134;11.576;2024-03-02T10:19:18;100004.09;;;12.95;95.98
18500;BME280;9379;52.134;11.576;2024-03-02T10:21:46;100012.34;;;13.34;95.89
18500;BME280;9379;52.134;11.576;2024-03-02T10:24:13;100002.97;;;13.30;96.71
18500;BME280;9379;52.134;11.576;2024-03-02T10:26:42;100006.75;;;12.79;98.17
18500;BME280;9379;52.134;11.576;2024-03-02T10:29:09;100003.94;;;13.70;94.70
18500;BME280;9379;52.134;11.576;2024-03-02T10:31:37;100007.13;;;14.21;92.00
18500;BME280;9379;52.134;11.576;2024-03-02T10:34:05;100007.50;;;13.46;95.13
18500;BME280;9379;52.134;11.576;2024-03-02T10:36:32;100014.75;;;13.85;93.90
18500;BME280;9379;52.134;11.576;2024-03-02T10:39:02;100017.59;;;13.91;94.45
18500;BME280;9379;52.134;11.576;2024-03-02T10:41:32;100006.72;;;13.93;94.12
18500;BME280;9379;52.134;11.576;2024-03-02T10:44:02;100007.38;;;14.42;92.52
18500;BME280;9379;52.134;11.576;2024-03-02T10:46:30;100007.75;;;13.84;94.07
18500;BME280;9379;52.134;11.576;2024-03-02T10:48:57;100007.00;;;14.14;94.17
18500;BME280;9379;52.134;11.576;2024-03-02T10:51:25;100009.13;;;14.27;93.73
18500;BME280;9379;52.134;11.576;2024-03-02T10:53:53;100004.25;;;14.30;92.85
18500;BME280;9379;52.134;11.576;2024-03-02T10:56:24;99996.84;;;14.41;92.77
18500;BME280;9379;52.134;11.576;2024-03-02T10:58:55;100000.44;;;14.25;92.40
18500;BME280;9379;52.134;11.576;2024-03-02T11:01:27;99996.03;;;14.01;93.18
18500;BME280;9379;52.134;11.576;2024-03-02T11:03:56;99997.84;;;14.40;92.35
18500;BME280;9379;52.134;11.576;2024-03-02T11:06:26;100004.00;;;14.09;92.42
18500;BME280;9379;52.134;11.576;2024-03-02T11:08:57;100005.41;;;14.36;92.92
18500;BME280;9379;52.134;11.576;2024-03-02T11:11:29;99994.09;;;14.26;91.06
18500;BME280;9379;52.134;11.576;2024-03-02T11:13:57;100001.50;;;14.08;92.26
18500;BME280;9379;52.134;11.576;2024-03-02T11:16:32;99991.16;;;15.21;88.93
18500;BME280;9379;52.134;11.576;2024-03-02T11:19:03;99999.59;;;14.64;90.70
18500;BME280;9379;52.134;11.576;2024-03-02T11:21:31;99996.47;;;14.13;90.99
18500;BME280;9379;52.134;11.576;2024-03-02T11:23:59;100000.19;;;13.95;93.38
18500;BME280;9379;52.134;11.576;2024-03-02T11:26:28;99993.28;;;14.17;92.22
18500;BME280;9379;52.134;11.576;2024-03-02T11:28:55;99996.22;;;14.30;91.11
18500;BME280;9379;52.134;11.576;2024-03-02T11:34:28;99989.94;;;15.08;88.47
18500;BME280;9379;52.134;11.576;2024-03-02T11:36:56;99980.84;;;15.17;88.44
18500;BME280;9379;52.134;11.576;2024-03-02T11:39:23;99981.34;;;14.67;89.73
18500;BME280;9379;52.134;11.576;2024-03-02T11:41:50;99986.13;;;15.03;87.97
18500;BME280;9379;52.134;11.576;2024-03-02T11:44:17;99977.50;;;15.53;86.69
18500;BME280;9379;52.134;11.576;2024-03-02T11:46:45;99970.97;;;15.85;86.59
18500;BME280;9379;52.134;11.576;2024-03-02T11:49:14;99974.69;;;15.99;86.30
18500;BME280;9379;52.134;11.576;2024-03-02T11:51:59;99973.38;;;15.65;85.48
18500;BME280;9379;52.134;11.576;2024-03-02T11:54:28;99971.06;;;16.07;84.88
18500;BME280;9379;52.134;11.576;2024-03-02T11:56:58;99966.03;;;16.33;84.55
18500;BME280;9379;52.134;11.576;2024-03-02T11:59:26;99961.00;;;15.64;85.57
18500;BME280;9379;52.134;11.576;2024-03-02T12:01:53;99972.09;;;15.91;86.90
18500;BME280;9379;52.134;11.576;2024-03-02T12:04:21;99973.72;;;15.62;86.29
18500;BME280;9379;52.134;11.576;2024-03-02T12:06:48;99964.06;;;16.42;81.45
18500;BME280;9379;52.134;11.576;2024-03-02T12:09:22;99963.22;;;16.41;83.45
18500;BME280;9379;52.134;11.576;2024-03-02T12:12:01;99965.94;;;16.77;82.53
18500;BME280;9379;52.134;11.576;2024-03-02T12:14:29;99968.88;;;15.43;86.15
18500;BME280;9379;52.134;11.576;2024-03-02T12:16:56;99966.72;;;15.91;84.43
18500;BME280;9379;52.134;11.576;2024-03-02T12:19:24;99955.34;;;16.03;83.67
18500;BME280;9379;52.134;11.576;2024-03-02T12:21:51;99960.25;;;16.00;84.00
18500;BME280;9379;52.134;11.576;2024-03-02T12:24:22;99963.13;;;15.98;84.70
18500;BME280;9379;52.134;11.576;2024-03-02T12:26:49;99948.34;;;16.02;84.36
18500;BME280;9379;52.134;11.576;2024-03-02T12:29:18;99947.66;;;16.15;84.31
18500;BME280;9379;52.134;11.576;2024-03-02T12:31:48;99945.28;;;15.24;86.92
18500;BME280;9379;52.134;11.576;2024-03-02T12:34:16;99939.19;;;16.12;85.06
18500;BME280;9379;52.134;11.576;2024-03-02T12:36:44;99936.94;;;16.15;85.13
18500;BME280;9379;52.134;11.576;2024-03-02T12:39:13;99939.06;;;16.05;83.33
18500;BME280;9379;52.134;11.576;2024-03-02T12:41:41;99946.06;;;15.32;85.12
18500;BME280;9379;52.134;11.576;2024-03-02T12:44:08;99946.69;;;15.34;84.30
18500;BME280;9379;52.134;11.576;2024-03-02T12:46:35;99944.97;;;15.41;84.53
18500;BME280;9379;52.134;11.576;2024-03-02T12:49:07;99937.81;;;15.19;82.86
18500;BME280;9379;52.134;11.576;2024-03-02T12:51:35;99945.34;;;15.15;84.27
18500;BME280;9379;52.134;11.576;2024-03-02T12:54:02;99944.81;;;15.72;83.55
18500;BME280;9379;52.134;11.576;2024-03-02T12:56:31;99946.13;;;15.77;83.36
18500;BME280;9379;52.134;11.576;2024-03-02T12:59:00;99939.56;;;14.89;84.77
18500;BME280;9379;52.134;11.576;2024-03-02T13:01:27;99949.31;;;15.42;84.02
18500;BME280;9379;52.134;11.576;2024-03-02T13:03:54;99947.84;;;15.55;84.58
18500;BME280;9379;52.134;11.576;2024-03-02T13:06:22;99941.72;;;15.31;83.69
18500;BME280;9379;52.134;11.576;2024-03-02T13:08:50;99944.75;;;15.66;82.08
18500;BME280;9379;52.134;11.576;2024-03-02T13:11:17;99949.25;;;15.80;80.58
18500;BME280;9379;52.134;11.576;2024-03-02T13:13:45;99938.81;;;16.00;80.07
18500;BME280;9379;52.134;11.576;2024-03-02T13:16:13;99939.81;;;15.55;81.33
18500;BME280;9379;52.134;11.576;2024-03-02T13:18:41;99948.38;;;14.98;81.98